sensor_id;sensor_type;location;lat;lon;timestamp;pressure;altitude;pressure_sealevel;temperature;humidity
61761;BME280;47664;51.660;-0.100;2022-12-07T00:01:56;101672.31;;;2.43;66.36
61761;BME280;47664;51.660;-0.100;2022-12-07T00:04:28;101670.53;;;2.73;66.63
61761;BME280;47664;51.660;-0.100;2022-12-07T00:07:00;101671.92;;;2.28;66.82
61761;BME280;47664;51.660;-0.100;2022-12-07T00:09:32;101670.90;;;2.03;67.27
61761;BME280;47664;51.660;-0.100;2022-12-07T00:12:04;101664.18;;;2.30;66.52
61761;BME280;47664;51.660;-0.100;2022-12-07T00:14:36;101667.94;;;2.62;66.40
61761;BME280;47664;51.660;-0.100;2022-12-07T00:17:08;101667.65;;;2.83;65.61
61761;BME280;47664;51.660;-0.100;2022-12-07T00:19:40;101671.79;;;3.35;64.36
61761;BME280;47664;51.660;-0.100;2022-12-07T00:22:12;101679.38;;;2.97;64.30
61761;BME280;47664;51.660;-0.100;2022-12-07T00:24:45;101677.96;;;3.19;64.14
61761;BME280;47664;51.660;-0.100;2022-12-07T00:27:17;101678.22;;;3.45;62.87
61761;BME280;47664;51.660;-0.100;2022-12-07T00:29:49;101679.56;;;3.69;62.09
61761;BME280;47664;51.660;-0.100;2022-12-07T00:32:21;101677.66;;;3.59;63.02
61761;BME280;47664;51.660;-0.100;2022-12-07T00:34:53;101677.37;;;3.31;63.42
61761;BME280;47664;51.660;-0.100;2022-12-07T00:37:25;101676.62;;;3.41;63.02
61761;BME280;47664;51.660;-0.100;2022-12-07T00:39:57;101674.11;;;3.66;61.64
61761;BME280;47664;51.660;-0.100;2022-12-07T00:42:29;101669.69;;;3.48;61.35
61761;BME280;47664;51.660;-0.100;2022-12-07T00:45:02;101672.72;;;3.49;62.23
61761;BME280;47664;51.660;-0.100;2022-12-07T00:47:34;101670.68;;;3.45;62.70
61761;BME280;47664;51.660;-0.100;2022-12-07T00:50:07;101667.44;;;3.26;63.72
61761;BME280;47664;51.660;-0.100;2022-12-07T00:52:39;101663.70;;;3.16;63.54
61761;BME280;47664;51.660;-0.100;2022-12-07T00:55:12;101660.84;;;3.34;63.72
61761;BME280;47664;51.660;-0.100;2022-12-07T00:57:44;101657.93;;;3.03;63.76
61761;BME280;47664;51.660;-0.100;2022-12-07T01:00:17;101659.04;;;3.41;63.95
61761;BME280;47664;51.660;-0.100;2022-12-07T01:02:50;101657.81;;;3.12;64.72
61761;BME280;47664;51.660;-0.100;2022-12-07T01:05:22;101658.73;;;3.28;64.05
61761;BME280;47664;51.660;-0.100;2022-12-07T01:07:54;101661.42;;;3.50;63.10
61761;BME280;47664;51.660;-0.100;2022-12-07T01:10:27;101658.32;;;3.57;63.06
61761;BME280;47664;51.660;-0.100;2022-12-07T01:12:59;101657.61;;;3.56;63.10
61761;BME280;47664;51.660;-0.100;2022-12-07T01:15:31;101653.88;;;3.94;62.26
61761;BME280;47664;51.660;-0.100;2022-12-07T01:18:04;101650.39;;;4.11;62.13
61761;BME280;47664;51.660;-0.100;2022-12-07T01:20:36;101649.91;;;3.84;62.15
61761;BME280;47664;51.660;-0.100;2022-12-07T01:23:09;101646.60;;;3.87;62.47
61761;BME280;47664;51.660;-0.100;2022-12-07T01:25:41;101650.26;;;3.63;62.56
61761;BME280;47664;51.660;-0.100;2022-12-07T01:28:13;101650.70;;;3.59;63.61
61761;BME280;47664;51.660;-0.100;2022-12-07T01:30:45;101647.22;;;2.98;65.07
61761;BME280;47664;51.660;-0.100;2022-12-07T01:33:26;101650.37;;;2.99;65.15
61761;BME280;47664;51.660;-0.100;2022-12-07T01:36:01;101648.48;;;3.02;65.44
61761;BME280;47664;51.660;-0.100;2022-12-07T01:38:34;101649.23;;;2.72;65.63
61761;BME280;47664;51.660;-0.100;2022-12-07T01:41:07;101647.30;;;3.12;65.02
61761;BME280;47664;51.660;-0.100;2022-12-07T01:44:07;101650.21;;;3.21;65.23
61761;BME280;47664;51.660;-0.100;2022-12-07T01:46:41;101654.28;;;2.68;65.72
61761;BME280;47664;51.660;-0.100;2022-12-07T01:49:33;101653.04;;;2.89;65.41
61761;BME280;47664;51.660;-0.100;2022-12-07T01:52:10;101651.20;;;2.93;65.73
61761;BME280;47664;51.660;-0.100;2022-12-07T01:54:45;101651.21;;;3.14;65.58
61761;BME280;47664;51.660;-0.100;2022-12-07T01:57:19;101650.95;;;2.74;66.23
61761;BME280;47664;51.660;-0.100;2022-12-07T01:59:53;101651.94;;;3.16;65.19
61761;BME280;47664;51.660;-0.100;2022-12-07T02:02:26;101654.30;;;2.85;65.60
61761;BME280;47664;51.660;-0.100;2022-12-07T02:05:02;101656.79;;;2.76;66.50
61761;BME280;47664;51.660;-0.100;2022-12-07T02:07:36;101661.68;;;3.04;65.67
61761;BME280;47664;51.660;-0.100;2022-12-07T02:10:13;101661.50;;;2.98;65.91
61761;BME280;47664;51.660;-0.100;2022-12-07T02:12:46;101661.60;;;3.03;65.77
61761;BME280;47664;51.660;-0.100;2022-12-07T02:15:20;101666.50;;;2.89;64.99
61761;BME280;47664;51.660;-0.100;2022-12-07T02:17:54;101670.66;;;3.21;64.07
61761;BME280;47664;51.660;-0.100;2022-12-07T02:20:33;101670.66;;;3.56;64.30
61761;BME280;47664;51.660;-0.100;2022-12-07T02:23:39;101667.68;;;2.93;65.54
61761;BME280;47664;51.660;-0.100;2022-12-07T02:26:23;101666.97;;;3.22;64.86
61761;BME280;47664;51.660;-0.100;2022-12-07T02:29:09;101665.96;;;3.52;63.64
61761;BME280;47664;51.660;-0.100;2022-12-07T02:31:43;101662.71;;;3.40;62.88
61761;BME280;47664;51.660;-0.100;2022-12-07T02:34:18;101659.70;;;3.21;64.21
61761;BME280;47664;51.660;-0.100;2022-12-07T02:36:52;101654.64;;;3.11;64.63
61761;BME280;47664;51.660;-0.100;2022-12-07T02:39:27;101659.87;;;3.53;64.43
61761;BME280;47664;51.660;-0.100;2022-12-07T02:42:00;101661.14;;;3.58;63.20
61761;BME280;47664;51.660;-0.100;2022-12-07T02:44:36;101661.68;;;3.58;63.36
61761;BME280;47664;51.660;-0.100;2022-12-07T02:47:10;101657.49;;;3.77;63.20
61761;BME280;47664;51.660;-0.100;2022-12-07T02:49:44;101651.48;;;4.08;62.26
61761;BME280;47664;51.660;-0.100;2022-12-07T02:52:17;101648.58;;;2.98;63.88
61761;BME280;47664;51.660;-0.100;2022-12-07T02:54:49;101652.06;;;3.45;64.24
61761;BME280;47664;51.660;-0.100;2022-12-07T02:57:28;101648.79;;;2.95;64.62
61761;BME280;47664;51.660;-0.100;2022-12-07T03:00:07;101650.52;;;3.33;63.95
61761;BME280;47664;51.660;-0.100;2022-12-07T03:02:41;101643.06;;;3.83;63.13
61761;BME280;47664;51.660;-0.100;2022-12-07T03:05:25;101637.66;;;3.38;62.43
61761;BME280;47664;51.660;-0.100;2022-12-07T03:08:01;101639.37;;;3.67;62.35
61761;BME280;47664;51.660;-0.100;2022-12-07T03:10:37;101634.35;;;3.83;62.37
61761;BME280;47664;51.660;-0.100;2022-12-07T03:13:19;101633.40;;;3.21;62.87
61761;BME280;47664;51.660;-0.100;2022-12-07T03:15:53;101631.14;;;3.11;63.42
61761;BME280;47664;51.660;-0.100;2022-12-07T03:18:29;101629.44;;;3.64;62.88
61761;BME280;47664;51.660;-0.100;2022-12-07T03:21:06;101630.77;;;3.77;62.21
61761;BME280;47664;51.660;-0.100;2022-12-07T03:23:42;101625.71;;;3.89;61.89
61761;BME280;47664;51.660;-0.100;2022-12-07T03:26:23;101626.14;;;3.87;62.13
61761;BME280;47664;51.660;-0.100;2022-12-07T03:28:54;101632.14;;;3.81;62.09
61761;BME280;47664;51.660;-0.100;2022-12-07T03:31:29;101630.51;;;3.21;63.11
61761;BME280;47664;51.660;-0.100;2022-12-07T03:34:02;101629.87;;;3.06;64.45
61761;BME280;47664;51.660;-0.100;2022-12-07T03:36:42;101630.84;;;2.76;65.52
61761;BME280;47664;51.660;-0.100;2022-12-07T03:39:19;101628.61;;;2.84;64.87
61761;BME280;47664;51.660;-0.100;2022-12-07T03:41:56;101630.28;;;3.29;63.82
61761;BME280;47664;51.660;-0.100;2022-12-07T03:44:29;101629.62;;;3.06;64.12
61761;BME280;47664;51.660;-0.100;2022-12-07T03:47:01;101629.17;;;3.48;63.75
61761;BME280;47664;51.660;-0.100;2022-12-07T03:49:36;101626.75;;;3.23;63.77
61761;BME280;47664;51.660;-0.100;2022-12-07T03:52:12;101625.13;;;3.32;63.48
61761;BME280;47664;51.660;-0.100;2022-12-07T03:54:47;101621.21;;;3.91;62.35
61761;BME280;47664;51.660;-0.100;2022-12-07T03:57:22;101619.50;;;3.49;61.80
61761;BME280;47664;51.660;-0.100;2022-12-07T03:59:56;101619.53;;;3.99;61.50
61761;BME280;47664;51.660;-0.100;2022-12-07T04:02:30;101621.33;;;3.12;62.42
61761;BME280;47664;51.660;-0.100;2022-12-07T04:05:03;101617.24;;;3.37;62.51
61761;BME280;47664;51.660;-0.100;2022-12-07T04:07:35;101615.72;;;3.79;62.41
61761;BME280;47664;51.660;-0.100;2022-12-07T04:10:08;101615.73;;;3.72;61.69
61761;BME280;47664;51.660;-0.100;2022-12-07T04:12:40;101614.77;;;4.00;61.27
61761;BME280;47664;51.660;-0.100;2022-12-07T04:15:13;101620.17;;;2.94;64.34
61761;BME280;47664;51.660;-0.100;2022-12-07T04:17:45;101624.09;;;3.15;64.01
61761;BME280;47664;51.660;-0.100;2022-12-07T04:20:18;101620.53;;;3.43;63.03
61761;BME280;47664;51.660;-0.100;2022-12-07T04:22:50;101618.19;;;3.66;62.24
61761;BME280;47664;51.660;-0.100;2022-12-07T04:25:22;101618.37;;;3.38;62.91
61761;BME280;47664;51.660;-0.100;2022-12-07T04:27:54;101612.89;;;3.67;62.04
61761;BME280;47664;51.660;-0.100;2022-12-07T04:30:27;101610.95;;;3.60;61.75
61761;BME280;47664;51.660;-0.100;2022-12-07T04:32:59;101610.62;;;3.77;61.48
61761;BME280;47664;51.660;-0.100;2022-12-07T04:35:31;101611.52;;;3.28;61.96
61761;BME280;47664;51.660;-0.100;2022-12-07T04:38:03;101607.50;;;4.01;61.56
61761;BME280;47664;51.660;-0.100;2022-12-07T04:40:36;101610.11;;;3.49;61.44
61761;BME280;47664;51.660;-0.100;2022-12-07T04:43:08;101609.32;;;3.96;61.13
61761;BME280;47664;51.660;-0.100;2022-12-07T04:45:46;101606.00;;;4.15;60.18
61761;BME280;47664;51.660;-0.100;2022-12-07T04:48:18;101606.81;;;3.54;60.35
61761;BME280;47664;51.660;-0.100;2022-12-07T04:50:48;101603.14;;;3.83;61.06
61761;BME280;47664;51.660;-0.100;2022-12-07T04:53:21;101602.19;;;3.72;61.30
61761;BME280;47664;51.660;-0.100;2022-12-07T04:55:53;101599.70;;;3.68;61.64
61761;BME280;47664;51.660;-0.100;2022-12-07T04:58:25;101592.20;;;4.13;60.70
61761;BME280;47664;51.660;-0.100;2022-12-07T05:00:59;101594.74;;;3.61;60.76
61761;BME280;47664;51.660;-0.100;2022-12-07T05:03:31;101594.67;;;3.65;61.21
61761;BME280;47664;51.660;-0.100;2022-12-07T05:06:03;101593.31;;;3.64;61.44
61761;BME280;47664;51.660;-0.100;2022-12-07T05:08:35;101597.14;;;3.68;62.16
61761;BME280;47664;51.660;-0.100;2022-12-07T05:11:09;101595.20;;;3.87;60.75
61761;BME280;47664;51.660;-0.100;2022-12-07T05:13:42;101596.64;;;3.56;61.36
61761;BME280;47664;51.660;-0.100;2022-12-07T05:16:14;101597.89;;;3.34;62.16
61761;BME280;47664;51.660;-0.100;2022-12-07T05:18:47;101594.26;;;2.95;63.27
61761;BME280;47664;51.660;-0.100;2022-12-07T05:21:19;101597.79;;;2.81;62.95
61761;BME280;47664;51.660;-0.100;2022-12-07T05:23:52;101595.96;;;3.03;63.38
61761;BME280;47664;51.660;-0.100;2022-12-07T05:26:24;101590.74;;;3.20;62.49
61761;BME280;47664;51.660;-0.100;2022-12-07T05:28:57;101591.57;;;3.46;61.67
61761;BME280;47664;51.660;-0.100;2022-12-07T05:31:30;101586.98;;;3.74;60.82
61761;BME280;47664;51.660;-0.100;2022-12-07T05:34:02;101585.82;;;3.41;60.90
61761;BME280;47664;51.660;-0.100;2022-12-07T05:36:35;101584.28;;;2.98;63.01
61761;BME280;47664;51.660;-0.100;2022-12-07T05:39:07;101587.35;;;2.93;62.25
61761;BME280;47664;51.660;-0.100;2022-12-07T05:41:40;101581.90;;;2.91;62.18
61761;BME280;47664;51.660;-0.100;2022-12-07T05:44:13;101580.08;;;2.81;62.65
61761;BME280;47664;51.660;-0.100;2022-12-07T05:46:45;101580.73;;;3.16;61.96
61761;BME280;47664;51.660;-0.100;2022-12-07T05:49:17;101573.51;;;2.26;63.07
61761;BME280;47664;51.660;-0.100;2022-12-07T05:51:49;101568.13;;;2.81;64.17
61761;BME280;47664;51.660;-0.100;2022-12-07T05:54:21;101570.10;;;2.84;63.21
61761;BME280;47664;51.660;-0.100;2022-12-07T05:56:53;101562.21;;;2.95;62.11
61761;BME280;47664;51.660;-0.100;2022-12-07T05:59:26;101564.48;;;3.29;61.79
61761;BME280;47664;51.660;-0.100;2022-12-07T06:02:00;101558.43;;;3.44;61.12
61761;BME280;47664;51.660;-0.100;2022-12-07T06:04:34;101553.09;;;3.73;60.37
61761;BME280;47664;51.660;-0.100;2022-12-07T06:07:07;101551.97;;;3.47;60.58
61761;BME280;47664;51.660;-0.100;2022-12-07T06:09:40;101553.71;;;3.38;60.43
61761;BME280;47664;51.660;-0.100;2022-12-07T06:12:10;101551.60;;;3.57;60.84
61761;BME280;47664;51.660;-0.100;2022-12-07T06:14:42;101558.10;;;3.23;60.92
61761;BME280;47664;51.660;-0.100;2022-12-07T06:17:15;101555.50;;;3.87;59.78
61761;BME280;47664;51.660;-0.100;2022-12-07T06:19:48;101560.30;;;4.04;59.33
61761;BME280;47664;51.660;-0.100;2022-12-07T06:22:20;101557.15;;;4.23;58.79
61761;BME280;47664;51.660;-0.100;2022-12-07T06:24:52;101557.90;;;4.37;58.47
61761;BME280;47664;51.660;-0.100;2022-12-07T06:27:25;101560.77;;;4.06;58.07
61761;BME280;47664;51.660;-0.100;2022-12-07T06:29:57;101559.16;;;3.79;59.59
61761;BME280;47664;51.660;-0.100;2022-12-07T06:32:29;101566.50;;;3.51;60.08
61761;BME280;47664;51.660;-0.100;2022-12-07T06:35:03;101569.31;;;3.35;60.14
61761;BME280;47664;51.660;-0.100;2022-12-07T06:37:35;101568.55;;;3.41;60.96
61761;BME280;47664;51.660;-0.100;2022-12-07T06:40:08;101570.68;;;3.11;61.14
61761;BME280;47664;51.660;-0.100;2022-12-07T06:42:41;101572.61;;;2.90;61.75
61761;BME280;47664;51.660;-0.100;2022-12-07T06:45:14;101577.16;;;3.28;61.84
61761;BME280;47664;51.660;-0.100;2022-12-07T06:47:46;101578.22;;;3.25;61.18
61761;BME280;47664;51.660;-0.100;2022-12-07T06:50:18;101573.12;;;3.25;60.71
61761;BME280;47664;51.660;-0.100;2022-12-07T06:52:51;101571.06;;;3.67;59.97
61761;BME280;47664;51.660;-0.100;2022-12-07T06:55:23;101571.93;;;3.60;58.72
61761;BME280;47664;51.660;-0.100;2022-12-07T06:57:55;101569.25;;;4.01;58.45
61761;BME280;47664;51.660;-0.100;2022-12-07T07:00:28;101569.26;;;3.95;58.06
61761;BME280;47664;51.660;-0.100;2022-12-07T07:03:00;101572.84;;;4.02;58.32
61761;BME280;47664;51.660;-0.100;2022-12-07T07:05:32;101572.49;;;3.31;58.63
61761;BME280;47664;51.660;-0.100;2022-12-07T07:08:05;101582.52;;;3.17;60.30
61761;BME280;47664;51.660;-0.100;2022-12-07T07:10:37;101579.03;;;2.85;60.87
61761;BME280;47664;51.660;-0.100;2022-12-07T07:13:09;101580.04;;;2.84;60.81
61761;BME280;47664;51.660;-0.100;2022-12-07T07:15:42;101579.01;;;2.77;60.62
61761;BME280;47664;51.660;-0.100;2022-12-07T07:18:14;101576.65;;;2.63;61.50
61761;BME280;47664;51.660;-0.100;2022-12-07T07:20:47;101582.08;;;2.37;61.67
61761;BME280;47664;51.660;-0.100;2022-12-07T07:23:19;101579.80;;;2.68;61.11
61761;BME280;47664;51.660;-0.100;2022-12-07T07:25:52;101580.48;;;2.35;61.57
61761;BME280;47664;51.660;-0.100;2022-12-07T07:28:24;101587.96;;;2.57;62.12
61761;BME280;47664;51.660;-0.100;2022-12-07T07:30:56;101587.03;;;2.53;61.40
61761;BME280;47664;51.660;-0.100;2022-12-07T07:33:28;101586.42;;;2.13;62.07
61761;BME280;47664;51.660;-0.100;2022-12-07T07:36:00;101590.34;;;2.03;62.06
61761;BME280;47664;51.660;-0.100;2022-12-07T07:38:33;101596.29;;;2.04;62.05
61761;BME280;47664;51.660;-0.100;2022-12-07T07:41:05;101592.39;;;2.51;61.46
61761;BME280;47664;51.660;-0.100;2022-12-07T07:43:38;101591.94;;;2.65;60.75
61761;BME280;47664;51.660;-0.100;2022-12-07T07:46:10;101589.22;;;2.81;59.87
61761;BME280;47664;51.660;-0.100;2022-12-07T07:48:42;101591.62;;;2.97;59.76
61761;BME280;47664;51.660;-0.100;2022-12-07T07:51:16;101594.32;;;2.97;59.87
61761;BME280;47664;51.660;-0.100;2022-12-07T07:53:48;101590.65;;;2.79;59.71
61761;BME280;47664;51.660;-0.100;2022-12-07T07:56:20;101592.26;;;2.43;60.28
61761;BME280;47664;51.660;-0.100;2022-12-07T07:58:52;101594.43;;;1.87;62.10
61761;BME280;47664;51.660;-0.100;2022-12-07T08:01:24;101596.22;;;0.88;63.47
61761;BME280;47664;51.660;-0.100;2022-12-07T08:03:57;101596.50;;;1.51;63.85
61761;BME280;47664;51.660;-0.100;2022-12-07T08:06:29;101597.25;;;1.72;62.99
61761;BME280;47664;51.660;-0.100;2022-12-07T08:09:01;101600.99;;;1.52;63.60
61761;BME280;47664;51.660;-0.100;2022-12-07T08:11:34;101605.00;;;1.42;63.42
61761;BME280;47664;51.660;-0.100;2022-12-07T08:14:06;101601.90;;;1.36;63.50
61761;BME280;47664;51.660;-0.100;2022-12-07T08:16:38;101599.70;;;1.80;63.10
61761;BME280;47664;51.660;-0.100;2022-12-07T08:19:10;101600.38;;;1.20;63.35
61761;BME280;47664;51.660;-0.100;2022-12-07T08:21:43;101596.29;;;1.78;63.01
61761;BME280;47664;51.660;-0.100;2022-12-07T08:24:16;101592.66;;;1.15;62.90
61761;BME280;47664;51.660;-0.100;2022-12-07T08:26:48;101591.04;;;1.57;62.56
61761;BME280;47664;51.660;-0.100;2022-12-07T08:29:21;101593.40;;;1.59;62.21
61761;BME280;47664;51.660;-0.100;2022-12-07T08:31:53;101599.13;;;1.66;63.02
61761;BME280;47664;51.660;-0.100;2022-12-07T08:34:25;101597.94;;;1.33;63.86
61761;BME280;47664;51.660;-0.100;2022-12-07T08:36:57;101601.26;;;0.98;64.82
61761;BME280;47664;51.660;-0.100;2022-12-07T08:39:30;101596.57;;;1.35;64.94
61761;BME280;47664;51.660;-0.100;2022-12-07T08:42:01;101593.98;;;1.31;64.61
61761;BME280;47664;51.660;-0.100;2022-12-07T08:44:33;101596.31;;;1.48;63.59
61761;BME280;47664;51.660;-0.100;2022-12-07T08:47:07;101598.79;;;1.09;64.00
61761;BME280;47664;51.660;-0.100;2022-12-07T08:49:43;101593.44;;;1.02;64.82
61761;BME280;47664;51.660;-0.100;2022-12-07T08:52:16;101590.74;;;1.08;64.89
61761;BME280;47664;51.660;-0.100;2022-12-07T08:54:50;101588.58;;;1.40;64.11
61761;BME280;47664;51.660;-0.100;2022-12-07T08:57:22;101586.28;;;1.64;63.32
61761;BME280;47664;51.660;-0.100;2022-12-07T08:59:54;101590.53;;;1.01;64.63
61761;BME280;47664;51.660;-0.100;2022-12-07T09:02:26;101588.14;;;0.94;64.88
61761;BME280;47664;51.660;-0.100;2022-12-07T09:04:59;101588.45;;;0.77;65.69
61761;BME280;47664;51.660;-0.100;2022-12-07T09:07:31;101584.98;;;0.91;66.24
61761;BME280;47664;51.660;-0.100;2022-12-07T09:10:04;101580.42;;;0.97;65.52
61761;BME280;47664;51.660;-0.100;2022-12-07T09:12:37;101577.60;;;1.00;65.35
61761;BME280;47664;51.660;-0.100;2022-12-07T09:15:10;101569.49;;;1.52;64.36
61761;BME280;47664;51.660;-0.100;2022-12-07T09:17:42;101569.74;;;1.82;63.59
61761;BME280;47664;51.660;-0.100;2022-12-07T09:20:15;101570.35;;;1.55;63.23
61761;BME280;47664;51.660;-0.100;2022-12-07T09:22:47;101564.97;;;1.65;63.52
61761;BME280;47664;51.660;-0.100;2022-12-07T09:25:20;101561.57;;;1.68;63.52
61761;BME280;47664;51.660;-0.100;2022-12-07T09:27:55;101568.71;;;1.45;64.21
61761;BME280;47664;51.660;-0.100;2022-12-07T09:30:27;101568.11;;;1.20;64.44
61761;BME280;47664;51.660;-0.100;2022-12-07T09:33:00;101568.64;;;1.41;64.20
61761;BME280;47664;51.660;-0.100;2022-12-07T09:35:32;101572.22;;;1.40;64.01
61761;BME280;47664;51.660;-0.100;2022-12-07T09:38:04;101574.53;;;1.35;64.87
61761;BME280;47664;51.660;-0.100;2022-12-07T09:40:38;101567.26;;;1.51;63.79
61761;BME280;47664;51.660;-0.100;2022-12-07T09:43:12;101568.17;;;1.52;63.68
61761;BME280;47664;51.660;-0.100;2022-12-07T09:45:46;101573.03;;;1.63;63.85
61761;BME280;47664;51.660;-0.100;2022-12-07T09:48:17;101572.43;;;2.08;63.06
61761;BME280;47664;51.660;-0.100;2022-12-07T09:50:51;101575.92;;;2.39;62.46
61761;BME280;47664;51.660;-0.100;2022-12-07T09:53:25;101573.70;;;1.69;62.55
61761;BME280;47664;51.660;-0.100;2022-12-07T09:55:59;101569.64;;;1.72;62.48
61761;BME280;47664;51.660;-0.100;2022-12-07T09:58:33;101570.39;;;1.46;62.97
61761;BME280;47664;51.660;-0.100;2022-12-07T10:01:09;101566.29;;;2.03;63.06
61761;BME280;47664;51.660;-0.100;2022-12-07T10:03:45;101566.99;;;2.03;62.20
61761;BME280;47664;51.660;-0.100;2022-12-07T10:06:20;101567.81;;;2.23;60.94
61761;BME280;47664;51.660;-0.100;2022-12-07T10:08:53;101569.38;;;2.21;61.91
61761;BME280;47664;51.660;-0.100;2022-12-07T10:11:26;101569.22;;;1.90;62.28
61761;BME280;47664;51.660;-0.100;2022-12-07T10:14:09;101563.04;;;1.64;62.78
61761;BME280;47664;51.660;-0.100;2022-12-07T10:16:43;101558.90;;;1.72;62.28
61761;BME280;47664;51.660;-0.100;2022-12-07T10:19:22;101557.42;;;2.44;61.00
61761;BME280;47664;51.660;-0.100;2022-12-07T10:22:15;101556.81;;;2.61;60.92
61761;BME280;47664;51.660;-0.100;2022-12-07T10:24:49;101555.94;;;1.88;62.71
61761;BME280;47664;51.660;-0.100;2022-12-07T10:27:19;101559.36;;;1.94;62.05
61761;BME280;47664;51.660;-0.100;2022-12-07T10:29:53;101552.06;;;2.52;61.81
61761;BME280;47664;51.660;-0.100;2022-12-07T10:32:30;101550.67;;;2.36;61.14
61761;BME280;47664;51.660;-0.100;2022-12-07T10:35:20;101551.58;;;2.68;60.06
61761;BME280;47664;51.660;-0.100;2022-12-07T10:37:54;101554.25;;;3.15;59.49
61761;BME280;47664;51.660;-0.100;2022-12-07T10:40:30;101553.40;;;3.10;58.82
61761;BME280;47664;51.660;-0.100;2022-12-07T10:43:03;101547.68;;;2.66;60.31
61761;BME280;47664;51.660;-0.100;2022-12-07T10:45:37;101544.09;;;3.31;59.50
61761;BME280;47664;51.660;-0.100;2022-12-07T10:48:19;101533.09;;;2.98;59.53
61761;BME280;47664;51.660;-0.100;2022-12-07T10:51:01;101532.88;;;2.73;59.61
61761;BME280;47664;51.660;-0.100;2022-12-07T10:53:50;101537.33;;;2.83;60.52
61761;BME280;47664;51.660;-0.100;2022-12-07T10:56:34;101531.91;;;2.76;59.67
61761;BME280;47664;51.660;-0.100;2022-12-07T10:59:26;101527.66;;;2.41;61.30
61761;BME280;47664;51.660;-0.100;2022-12-07T11:02:12;101524.28;;;2.88;61.30
61761;BME280;47664;51.660;-0.100;2022-12-07T11:04:59;101511.92;;;2.69;60.78
61761;BME280;47664;51.660;-0.100;2022-12-07T11:07:39;101503.72;;;3.05;59.97
61761;BME280;47664;51.660;-0.100;2022-12-07T11:10:14;101501.48;;;2.72;61.13
61761;BME280;47664;51.660;-0.100;2022-12-07T11:13:00;101496.96;;;3.10;59.84
61761;BME280;47664;51.660;-0.100;2022-12-07T11:15:36;101493.90;;;3.19;58.09
61761;BME280;47664;51.660;-0.100;2022-12-07T11:18:17;101491.11;;;3.90;57.14
61761;BME280;47664;51.660;-0.100;2022-12-07T11:20:53;101486.22;;;3.20;57.54
61761;BME280;47664;51.660;-0.100;2022-12-07T11:23:31;101482.43;;;3.65;57.31
61761;BME280;47664;51.660;-0.100;2022-12-07T11:26:11;101484.42;;;3.92;57.28
61761;BME280;47664;51.660;-0.100;2022-12-07T11:28:58;101488.40;;;3.85;56.59
61761;BME280;47664;51.660;-0.100;2022-12-07T11:31:39;101493.48;;;3.26;58.40
61761;BME280;47664;51.660;-0.100;2022-12-07T11:34:18;101489.13;;;2.64;59.60
61761;BME280;47664;51.660;-0.100;2022-12-07T11:36:51;101483.68;;;2.97;59.88
61761;BME280;47664;51.660;-0.100;2022-12-07T11:39:25;101480.08;;;3.04;59.45
61761;BME280;47664;51.660;-0.100;2022-12-07T11:41:56;101476.54;;;2.81;59.87
61761;BME280;47664;51.660;-0.100;2022-12-07T11:44:32;101471.30;;;2.65;60.83
61761;BME280;47664;51.660;-0.100;2022-12-07T11:47:07;101467.30;;;2.83;60.48
61761;BME280;47664;51.660;-0.100;2022-12-07T11:49:43;101462.61;;;3.02;59.75
61761;BME280;47664;51.660;-0.100;2022-12-07T11:52:20;101455.22;;;2.98;59.07
61761;BME280;47664;51.660;-0.100;2022-12-07T11:54:55;101451.57;;;3.19;59.30
61761;BME280;47664;51.660;-0.100;2022-12-07T11:57:30;101449.67;;;3.22;59.16
61761;BME280;47664;51.660;-0.100;2022-12-07T12:00:12;101446.94;;;3.51;58.72
61761;BME280;47664;51.660;-0.100;2022-12-07T12:02:46;101443.24;;;3.74;56.87
61761;BME280;47664;51.660;-0.100;2022-12-07T12:05:21;101442.44;;;3.55;56.58
61761;BME280;47664;51.660;-0.100;2022-12-07T12:07:57;101437.18;;;4.23;56.24
61761;BME280;47664;51.660;-0.100;2022-12-07T12:10:35;101433.65;;;4.49;56.67
61761;BME280;47664;51.660;-0.100;2022-12-07T12:13:20;101428.43;;;4.22;55.90
61761;BME280;47664;51.660;-0.100;2022-12-07T12:16:04;101425.36;;;4.15;56.41
61761;BME280;47664;51.660;-0.100;2022-12-07T12:18:46;101416.80;;;4.04;56.03
61761;BME280;47664;51.660;-0.100;2022-12-07T12:21:28;101414.13;;;4.11;56.68
61761;BME280;47664;51.660;-0.100;2022-12-07T12:24:04;101407.12;;;3.45;58.36
61761;BME280;47664;51.660;-0.100;2022-12-07T12:26:49;101407.50;;;3.60;58.89
61761;BME280;47664;51.660;-0.100;2022-12-07T12:29:23;101405.92;;;3.43;59.20
61761;BME280;47664;51.660;-0.100;2022-12-07T12:32:07;101401.77;;;3.94;57.78
61761;BME280;47664;51.660;-0.100;2022-12-07T12:35:03;101400.20;;;3.78;58.26
61761;BME280;47664;51.660;-0.100;2022-12-07T12:37:52;101395.70;;;3.35;60.02
61761;BME280;47664;51.660;-0.100;2022-12-07T12:40:53;101393.67;;;3.50;58.65
61761;BME280;47664;51.660;-0.100;2022-12-07T12:43:52;101391.69;;;3.62;58.55
61761;BME280;47664;51.660;-0.100;2022-12-07T12:46:47;101393.32;;;3.95;57.95
61761;BME280;47664;51.660;-0.100;2022-12-07T12:50:22;101392.20;;;3.87;57.59
61761;BME280;47664;51.660;-0.100;2022-12-07T12:53:23;101383.75;;;3.92;56.79
61761;BME280;47664;51.660;-0.100;2022-12-07T12:56:34;101380.36;;;4.04;56.94
61761;BME280;47664;51.660;-0.100;2022-12-07T12:59:38;101382.73;;;4.22;57.46
61761;BME280;47664;51.660;-0.100;2022-12-07T13:02:16;101378.00;;;4.27;57.32
61761;BME280;47664;51.660;-0.100;2022-12-07T13:04:52;101376.83;;;3.79;58.33
61761;BME280;47664;51.660;-0.100;2022-12-07T13:07:52;101375.36;;;3.83;58.48
61761;BME280;47664;51.660;-0.100;2022-12-07T13:10:39;101373.15;;;3.67;58.69
61761;BME280;47664;51.660;-0.100;2022-12-07T13:13:39;101372.45;;;3.49;58.63
61761;BME280;47664;51.660;-0.100;2022-12-07T13:16:40;101366.33;;;3.80;59.10
61761;BME280;47664;51.660;-0.100;2022-12-07T13:20:45;101367.14;;;3.83;59.50
61761;BME280;47664;51.660;-0.100;2022-12-07T13:23:20;101363.31;;;3.62;58.87
61761;BME280;47664;51.660;-0.100;2022-12-07T13:25:58;101361.77;;;4.05;57.89
61761;BME280;47664;51.660;-0.100;2022-12-07T13:28:33;101354.35;;;4.38;57.42
61761;BME280;47664;51.660;-0.100;2022-12-07T13:31:12;101350.92;;;4.09;58.11
61761;BME280;47664;51.660;-0.100;2022-12-07T13:33:43;101352.82;;;3.56;59.26
61761;BME280;47664;51.660;-0.100;2022-12-07T13:36:18;101349.98;;;3.52;59.67